Time;durP1;ratioP1;P1;durP2;ratioP2;P2;SDS_P1;SDS_P2;PMS_P1;PMS_P2;Temp;Humidity;BMP_temperature;BMP_pressure;BME280_temperature;BME280_humidity;BME280_pressure;Samples;Min_cycle;Max_cycle;Signal;HPM_P1;HPM_P2
2023/05/16 00:00:18;;;;;;;11.68;3.05;;;11.00;99.90;;;;;;5063319;28;20040;-63
2023/05/16 00:02:44;;;;;;;18.15;3.47;;;11.00;99.90;;;;;;5061196;28;20041;-63
2023/05/16 00:05:13;;;;;;;12.20;2.65;;;11.00;99.90;;;;;;5051635;28;20037;-63
2023/05/16 00:07:41;;;;;;;16.75;3.20;;;11.00;99.90;;;;;;5066879;28;20391;-63
2023/05/16 00:10:07;;;;;;;16.40;3.10;;;10.90;99.90;;;;;;5063613;28;20048;-63
2023/05/16 00:12:35;;;;;;;19.58;3.42;;;10.90;99.90;;;;;;5062022;28;20040;-63
2023/05/16 00:15:01;;;;;;;16.15;3.72;;;10.90;99.90;;;;;;5059476;28;20145;-63
2023/05/16 00:17:27;;;;;;;17.73;2.90;;;10.80;99.90;;;;;;5061803;28;20068;-63
2023/05/16 00:19:57;;;;;;;12.32;2.60;;;10.80;99.90;;;;;;5072035;28;20033;-63
2023/05/16 00:22:26;;;;;;;17.33;3.50;;;10.80;99.90;;;;;;5068210;28;20040;-63
2023/05/16 00:24:52;;;;;;;13.65;2.70;;;10.80;99.90;;;;;;5069502;28;20040;-63
2023/05/16 00:27:17;;;;;;;15.00;2.95;;;10.70;99.90;;;;;;5059420;28;20044;-64
2023/05/16 00:29:43;;;;;;;18.65;3.80;;;10.70;99.90;;;;;;5066943;28;20047;-64
2023/05/16 00:32:08;;;;;;;14.65;2.78;;;10.60;99.90;;;;;;5058373;28;20045;-64
2023/05/16 00:34:35;;;;;;;18.63;3.47;;;10.60;99.90;;;;;;5062066;28;20127;-64
2023/05/16 00:37:00;;;;;;;13.57;3.92;;;10.60;99.90;;;;;;5057685;28;20040;-64
2023/05/16 00:39:26;;;;;;;16.95;2.90;;;10.50;99.90;;;;;;5061771;28;20043;-64
2023/05/16 00:41:52;;;;;;;17.17;2.88;;;10.50;99.90;;;;;;5070879;28;20028;-64
2023/05/16 00:44:18;;;;;;;16.25;3.35;;;10.40;99.90;;;;;;5067406;28;20044;-64
2023/05/16 00:46:43;;;;;;;16.60;3.42;;;10.40;99.90;;;;;;5056703;28;20056;-64
2023/05/16 00:49:09;;;;;;;17.95;3.33;;;10.40;99.90;;;;;;5052473;28;20040;-63
2023/05/16 00:51:37;;;;;;;16.08;3.47;;;10.30;99.90;;;;;;5059017;28;20080;-65
2023/05/16 00:54:03;;;;;;;14.02;3.42;;;10.30;99.90;;;;;;5042450;28;20048;-64
2023/05/16 00:56:29;;;;;;;12.93;2.85;;;10.30;99.90;;;;;;5055030;28;20084;-63
2023/05/16 00:58:55;;;;;;;14.18;2.90;;;10.20;99.90;;;;;;5061080;28;20064;-63
2023/05/16 01:01:23;;;;;;;18.48;3.08;;;10.20;99.90;;;;;;5064485;28;20041;-64
2023/05/16 01:03:49;;;;;;;9.88;2.28;;;10.20;99.90;;;;;;5064386;28;20118;-64
2023/05/16 01:06:15;;;;;;;16.13;3.22;;;10.20;99.90;;;;;;5061161;28;20044;-64
2023/05/16 01:08:41;;;;;;;13.30;2.28;;;10.10;99.90;;;;;;5054927;28;20028;-63
2023/05/16 01:11:24;;;;;;;12.50;2.80;;;10.10;99.90;;;;;;5064346;28;20063;-63
2023/05/16 01:14:02;;;;;;;17.55;3.25;;;10.00;99.90;;;;;;5053900;28;20037;-63
2023/05/16 01:17:17;;;;;;;15.85;2.45;;;10.00;99.90;;;;;;5069747;28;20441;-63
2023/05/16 01:19:51;;;;;;;20.58;2.50;;;10.00;99.90;;;;;;5061059;28;20055;-63
2023/05/16 01:22:37;;;;;;;13.48;2.40;;;10.00;99.90;;;;;;5060175;28;20265;-63
2023/05/16 01:25:15;;;;;;;11.18;2.25;;;9.90;99.90;;;;;;5065790;28;20049;-63
2023/05/16 01:27:42;;;;;;;15.13;2.72;;;9.90;99.90;;;;;;5054679;28;20517;-63
2023/05/16 01:30:17;;;;;;;13.93;2.58;;;9.90;99.90;;;;;;5069894;28;20047;-63
2023/05/16 01:32:42;;;;;;;14.68;2.78;;;9.90;99.90;;;;;;5062021;28;20044;-64
2023/05/16 01:35:11;;;;;;;15.07;2.72;;;9.80;99.90;;;;;;5069178;28;20036;-64
2023/05/16 01:37:45;;;;;;;11.40;2.50;;;9.80;99.90;;;;;;5063819;28;20048;-63
2023/05/16 01:40:33;;;;;;;11.35;2.40;;;9.80;99.90;;;;;;5067539;28;20032;-63
2023/05/16 01:43:03;;;;;;;12.23;2.50;;;9.80;99.90;;;;;;5054474;28;20043;-63
2023/05/16 01:45:32;;;;;;;15.88;3.17;;;9.70;99.90;;;;;;5068397;28;20087;-63
2023/05/16 01:48:07;;;;;;;11.05;2.38;;;9.70;99.90;;;;;;5060389;28;20486;-63
2023/05/16 01:50:38;;;;;;;12.98;2.60;;;9.70;99.90;;;;;;5060128;28;20052;-63
2023/05/16 01:53:10;;;;;;;12.43;2.60;;;9.60;99.90;;;;;;5061872;28;20048;-63
2023/05/16 01:55:48;;;;;;;17.40;2.42;;;9.60;99.90;;;;;;5069275;28;20032;-64
2023/05/16 01:58:16;;;;;;;14.68;2.75;;;9.60;99.90;;;;;;5068246;28;20508;-63
2023/05/16 02:00:42;;;;;;;10.52;2.20;;;9.60;99.90;;;;;;5069000;28;20494;-63
2023/05/16 02:03:08;;;;;;;13.95;2.55;;;9.60;99.90;;;;;;5061937;28;20043;-64
2023/05/16 02:05:33;;;;;;;11.05;2.30;;;9.50;99.90;;;;;;5057423;28;20072;-63
2023/05/16 02:08:00;;;;;;;12.75;3.00;;;9.50;99.90;;;;;;5070241;28;20036;-63
2023/05/16 02:10:26;;;;;;;12.32;2.35;;;9.50;99.90;;;;;;5054809;28;20077;-63
2023/05/16 02:12:52;;;;;;;15.60;2.92;;;9.50;99.90;;;;;;5059519;28;20044;-63
2023/05/16 02:15:18;;;;;;;11.73;2.42;;;9.40;99.90;;;;;;5063604;28;20037;-63
2023/05/16 02:17:44;;;;;;;12.25;2.55;;;9.40;99.90;;;;;;5067935;28;20040;-64
2023/05/16 02:20:10;;;;;;;11.43;2.30;;;9.40;99.90;;;;;;5065748;28;20086;-64
2023/05/16 02:22:38;;;;;;;13.85;2.60;;;9.40;99.90;;;;;;5053521;28;20035;-64
2023/05/16 02:25:05;;;;;;;9.27;2.00;;;9.30;99.90;;;;;;5058805;28;20071;-64
2023/05/16 02:27:31;;;;;;;16.70;2.35;;;9.30;99.90;;;;;;5060994;28;20123;-63
2023/05/16 02:29:57;;;;;;;15.05;2.75;;;9.30;99.90;;;;;;5065727;28;20040;-63
2023/05/16 02:32:23;;;;;;;8.25;2.10;;;9.20;99.90;;;;;;5056775;28;20044;-64
2023/05/16 02:34:48;;;;;;;11.70;2.28;;;9.20;99.90;;;;;;5055696;28;20501;-63
2023/05/16 02:37:15;;;;;;;14.70;2.80;;;9.20;99.90;;;;;;5061127;28;20312;-63
2023/05/16 02:39:40;;;;;;;12.88;2.70;;;9.20;99.90;;;;;;5053534;28;20040;-63
2023/05/16 02:42:06;;;;;;;10.65;2.63;;;9.20;99.90;;;;;;5057898;28;20052;-63
2023/05/16 02:44:32;;;;;;;14.80;2.90;;;9.20;99.90;;;;;;5063039;28;20405;-63
2023/05/16 02:46:57;;;;;;;12.50;2.67;;;9.20;99.90;;;;;;5058057;28;20229;-61
2023/05/16 02:49:23;;;;;;;12.50;2.38;;;9.20;99.90;;;;;;5061699;28;20570;-63
2023/05/16 02:51:49;;;;;;;11.93;2.20;;;9.10;99.90;;;;;;5068025;28;20029;-63
2023/05/16 02:54:14;;;;;;;14.55;2.90;;;9.10;99.90;;;;;;5062141;28;20044;-63
2023/05/16 02:56:40;;;;;;;14.00;2.92;;;9.10;99.90;;;;;;5064599;28;20425;-62
2023/05/16 02:59:06;;;;;;;10.15;2.60;;;9.10;99.90;;;;;;5059751;28;20041;-64
2023/05/16 03:01:32;;;;;;;11.45;2.00;;;9.00;99.90;;;;;;5059206;28;20043;-60
2023/05/16 03:03:57;;;;;;;12.75;2.35;;;9.00;99.90;;;;;;5065974;28;20032;-60
2023/05/16 03:06:23;;;;;;;12.63;2.30;;;9.00;99.90;;;;;;5068173;28;20052;-63
2023/05/16 03:08:49;;;;;;;14.32;2.38;;;9.00;99.90;;;;;;5073192;28;20079;-63
2023/05/16 03:11:21;;;;;;;14.43;2.55;;;8.90;99.90;;;;;;5062837;28;20120;-62
2023/05/16 03:13:46;;;;;;;13.43;2.63;;;8.90;99.90;;;;;;5064934;28;20048;-62
2023/05/16 03:16:12;;;;;;;13.70;2.70;;;8.90;99.90;;;;;;5072647;28;20048;-64
2023/05/16 03:18:37;;;;;;;12.88;2.40;;;8.90;99.90;;;;;;5064878;28;20040;-64
2023/05/16 03:21:03;;;;;;;9.82;2.17;;;8.80;99.90;;;;;;5060364;28;20519;-64
2023/05/16 03:23:29;;;;;;;12.18;2.20;;;8.80;99.90;;;;;;5063446;28;20479;-64
2023/05/16 03:25:55;;;;;;;13.80;2.38;;;8.80;99.90;;;;;;5071411;28;20044;-61
2023/05/16 03:28:20;;;;;;;12.85;3.30;;;8.80;99.90;;;;;;5064740;28;20120;-63
2023/05/16 03:30:46;;;;;;;13.48;2.40;;;8.80;99.90;;;;;;5071917;28;20064;-64
2023/05/16 03:33:12;;;;;;;11.70;2.45;;;8.80;99.90;;;;;;5066584;28;20105;-64
2023/05/16 03:35:38;;;;;;;11.55;2.45;;;8.70;99.90;;;;;;5052686;28;20063;-63
2023/05/16 03:38:03;;;;;;;12.48;2.95;;;8.70;99.90;;;;;;5061684;28;20045;-63
2023/05/16 03:40:29;;;;;;;9.55;2.22;;;8.70;99.90;;;;;;5071437;28;20086;-63
2023/05/16 03:42:55;;;;;;;9.43;2.05;;;8.70;99.90;;;;;;5064493;28;20037;-61
2023/05/16 03:45:21;;;;;;;11.32;2.15;;;8.60;99.90;;;;;;5059340;28;20038;-63
2023/05/16 03:47:48;;;;;;;14.32;2.53;;;8.60;99.90;;;;;;5055728;28;20102;-63
2023/05/16 03:50:14;;;;;;;11.32;2.50;;;8.60;99.90;;;;;;5058049;28;20052;-62
2023/05/16 03:52:40;;;;;;;14.93;2.95;;;8.60;99.90;;;;;;5070756;28;20047;-63
2023/05/16 03:55:06;;;;;;;11.80;2.83;;;8.60;99.90;;;;;;5052796;28;20033;-63
2023/05/16 03:57:33;;;;;;;9.68;2.38;;;8.60;99.90;;;;;;5070136;28;20060;-62
2023/05/16 03:59:59;;;;;;;10.60;2.38;;;8.60;99.90;;;;;;5069751;28;20120;-64
2023/05/16 04:02:25;;;;;;;14.60;2.42;;;8.60;99.90;;;;;;5056096;28;20115;-63
2023/05/16 04:04:50;;;;;;;9.13;3.13;;;8.50;99.90;;;;;;5059778;28;20571;-63
2023/05/16 04:07:16;;;;;;;12.38;3.20;;;8.60;99.90;;;;;;5063822;28;20092;-62
2023/05/16 04:09:42;;;;;;;10.18;2.20;;;8.60;99.90;;;;;;5071783;28;20115;-64
2023/05/16 04:12:07;;;;;;;12.77;2.47;;;8.60;99.90;;;;;;5070794;28;20028;-63
2023/05/16 04:14:34;;;;;;;10.90;2.70;;;8.60;99.90;;;;;;5070283;28;20041;-63
2023/05/16 04:17:00;;;;;;;11.98;2.85;;;8.60;99.90;;;;;;5057634;28;20074;-64
2023/05/16 04:19:26;;;;;;;12.85;2.15;;;8.50;99.90;;;;;;5059799;28;20035;-63
2023/05/16 04:21:51;;;;;;;16.17;3.10;;;8.50;99.90;;;;;;5064437;28;20388;-64
2023/05/16 04:24:17;;;;;;;12.27;3.00;;;8.50;99.90;;;;;;5070408;28;20045;-63
2023/05/16 04:26:43;;;;;;;9.27;2.55;;;8.50;99.90;;;;;;5066565;28;20040;-63
2023/05/16 04:29:10;;;;;;;13.90;2.75;;;8.50;99.90;;;;;;5062908;28;20029;-63
2023/05/16 04:31:36;;;;;;;11.10;2.30;;;8.50;99.90;;;;;;5062136;28;20036;-63
2023/05/16 04:34:02;;;;;;;13.77;2.70;;;8.50;99.90;;;;;;5060112;28;20475;-63
2023/05/16 04:36:28;;;;;;;12.15;2.45;;;8.50;99.90;;;;;;5060839;28;20122;-62
2023/05/16 04:38:55;;;;;;;11.38;2.38;;;8.50;99.90;;;;;;5071542;28;20039;-64
2023/05/16 04:41:21;;;;;;;12.38;2.58;;;8.50;99.90;;;;;;5063383;28;20075;-62
2023/05/16 04:43:47;;;;;;;9.98;2.45;;;8.50;99.90;;;;;;5057130;28;20036;-63
2023/05/16 04:46:14;;;;;;;12.60;2.90;;;8.50;99.90;;;;;;5062098;28;20044;-61
2023/05/16 04:48:40;;;;;;;11.93;2.42;;;8.50;99.90;;;;;;5069185;28;20032;-63
2023/05/16 04:51:05;;;;;;;14.27;2.83;;;8.50;99.90;;;;;;5057011;28;20039;-63
2023/05/16 04:53:31;;;;;;;11.13;2.65;;;8.50;99.90;;;;;;5064413;28;20415;-62
2023/05/16 04:55:57;;;;;;;11.25;2.60;;;8.50;99.90;;;;;;5066202;28;20068;-63
2023/05/16 04:58:23;;;;;;;13.13;2.17;;;8.50;99.90;;;;;;5056509;28;20088;-64
2023/05/16 05:00:51;;;;;;;17.67;2.88;;;8.50;99.90;;;;;;5063271;28;20074;-63
2023/05/16 05:03:17;;;;;;;9.73;2.33;;;8.50;99.90;;;;;;5065883;28;20971;-63
2023/05/16 05:05:43;;;;;;;11.90;2.67;;;8.50;99.90;;;;;;5066514;28;20040;-63
2023/05/16 05:08:09;;;;;;;10.88;2.30;;;8.50;99.90;;;;;;5066381;28;20044;-64
2023/05/16 05:10:35;;;;;;;13.15;2.50;;;8.50;99.90;;;;;;5058156;28;20036;-63
2023/05/16 05:13:00;;;;;;;13.00;2.90;;;8.60;99.90;;;;;;5057852;28;20040;-63
2023/05/16 05:15:26;;;;;;;9.30;2.38;;;8.60;99.90;;;;;;5063105;28;20059;-63
2023/05/16 05:17:52;;;;;;;11.98;2.60;;;8.60;99.90;;;;;;5059442;28;20032;-62
2023/05/16 05:20:18;;;;;;;11.07;2.47;;;8.70;99.90;;;;;;5059364;28;20123;-62
2023/05/16 05:22:43;;;;;;;9.45;2.78;;;8.70;99.90;;;;;;5066172;28;20174;-64
2023/05/16 05:25:09;;;;;;;10.82;2.38;;;8.80;99.90;;;;;;5068907;28;20525;-62
2023/05/16 05:27:35;;;;;;;15.98;3.55;;;8.90;99.90;;;;;;5068696;28;20040;-64
2023/05/16 05:30:01;;;;;;;12.32;2.63;;;8.90;99.90;;;;;;5058296;28;20043;-63
2023/05/16 05:32:27;;;;;;;11.85;2.75;;;8.90;99.90;;;;;;5064150;28;20114;-63
2023/05/16 05:34:52;;;;;;;17.20;2.60;;;8.90;99.90;;;;;;5066698;28;20090;-63
2023/05/16 05:37:18;;;;;;;12.02;2.33;;;8.90;99.90;;;;;;5060751;28;20037;-64
2023/05/16 05:39:44;;;;;;;11.00;2.33;;;9.00;99.90;;;;;;5060324;28;20411;-63
2023/05/16 05:42:10;;;;;;;13.20;2.38;;;9.00;99.90;;;;;;5057565;28;20041;-63
2023/05/16 05:44:36;;;;;;;11.82;2.63;;;9.00;99.90;;;;;;5069894;28;20429;-64
2023/05/16 05:47:03;;;;;;;13.00;2.55;;;9.10;99.90;;;;;;5057515;28;20060;-63
2023/05/16 05:49:29;;;;;;;14.10;2.70;;;9.10;99.90;;;;;;5058561;28;20414;-62
2023/05/16 05:51:54;;;;;;;13.98;2.88;;;9.10;99.90;;;;;;5067045;28;20050;-64
2023/05/16 05:54:20;;;;;;;13.07;2.53;;;9.20;99.90;;;;;;5056534;28;20465;-64
2023/05/16 05:56:46;;;;;;;13.85;3.05;;;9.20;99.90;;;;;;5058645;28;20040;-64
2023/05/16 05:59:12;;;;;;;12.80;2.10;;;9.20;99.90;;;;;;5058584;28;20049;-64
2023/05/16 06:01:38;;;;;;;10.40;2.72;;;9.20;99.90;;;;;;5059826;28;20032;-63
2023/05/16 06:04:03;;;;;;;12.30;2.47;;;9.20;99.90;;;;;;5052958;28;20514;-63
2023/05/16 06:06:30;;;;;;;14.25;2.33;;;9.30;99.90;;;;;;5052405;28;20072;-63
2023/05/16 06:08:56;;;;;;;11.02;2.30;;;9.30;99.90;;;;;;5053176;28;20115;-63
2023/05/16 06:11:24;;;;;;;10.73;2.30;;;9.30;99.90;;;;;;5065961;28;20032;-63
2023/05/16 06:13:50;;;;;;;10.07;1.98;;;9.40;99.90;;;;;;5054042;28;20045;-63
2023/05/16 06:16:16;;;;;;;17.27;2.85;;;9.40;99.90;;;;;;5053594;28;20127;-64
2023/05/16 06:18:42;;;;;;;14.80;2.25;;;9.40;99.90;;;;;;5052309;28;20132;-63
2023/05/16 06:21:07;;;;;;;14.82;2.28;;;9.50;99.90;;;;;;5058668;28;20125;-62
2023/05/16 06:23:34;;;;;;;10.63;1.77;;;9.50;99.90;;;;;;5055858;28;20036;-64
2023/05/16 06:26:00;;;;;;;12.43;2.03;;;9.60;99.90;;;;;;5058046;28;20102;-63
2023/05/16 06:28:26;;;;;;;9.82;2.35;;;9.60;99.90;;;;;;5063589;28;20062;-63
2023/05/16 06:30:51;;;;;;;13.18;2.45;;;9.70;99.90;;;;;;5057204;28;20507;-64
2023/05/16 06:33:17;;;;;;;13.60;2.20;;;9.80;99.90;;;;;;5050452;28;20045;-63
2023/05/16 06:35:43;;;;;;;11.93;2.08;;;9.80;99.90;;;;;;5055598;28;20036;-63
2023/05/16 06:38:09;;;;;;;7.28;1.88;;;9.90;99.90;;;;;;5049537;28;20497;-64
2023/05/16 06:40:35;;;;;;;13.57;2.40;;;10.00;99.90;;;;;;5053361;28;20033;-64
2023/05/16 06:43:00;;;;;;;11.40;2.25;;;10.10;99.90;;;;;;5068573;28;20032;-63
2023/05/16 06:45:26;;;;;;;13.07;2.58;;;10.10;99.90;;;;;;5056913;28;20174;-63
2023/05/16 06:47:51;;;;;;;8.90;1.90;;;10.10;99.90;;;;;;5060998;28;20506;-64
2023/05/16 06:50:17;;;;;;;8.73;2.10;;;10.20;99.90;;;;;;5060553;28;20127;-64
2023/05/16 06:52:43;;;;;;;16.38;2.10;;;10.20;99.90;;;;;;5062567;28;20067;-64
2023/05/16 06:55:09;;;;;;;11.27;2.40;;;10.20;99.90;;;;;;5049054;28;20107;-63
2023/05/16 06:57:34;;;;;;;9.35;1.70;;;10.30;99.90;;;;;;5067577;28;20044;-64
2023/05/16 07:00:00;;;;;;;5.88;1.60;;;10.40;99.90;;;;;;5061115;28;20028;-64
2023/05/16 07:02:25;;;;;;;8.32;1.63;;;10.40;99.90;;;;;;5056103;28;20033;-64
2023/05/16 07:04:51;;;;;;;8.73;1.67;;;10.50;99.90;;;;;;5060029;28;20040;-63
2023/05/16 07:07:16;;;;;;;11.85;1.70;;;10.50;99.90;;;;;;5054603;28;20105;-63
2023/05/16 07:09:42;;;;;;;8.30;1.63;;;10.60;99.90;;;;;;5062487;28;20040;-64
2023/05/16 07:12:08;;;;;;;8.50;1.80;;;10.60;99.90;;;;;;5054562;28;20045;-64
2023/05/16 07:14:34;;;;;;;6.93;1.40;;;10.70;99.90;;;;;;5069075;28;20033;-64
2023/05/16 07:17:00;;;;;;;9.57;1.48;;;10.70;99.90;;;;;;5061086;28;20037;-63
2023/05/16 07:19:25;;;;;;;7.63;1.50;;;10.80;99.90;;;;;;5064536;28;20170;-64
2023/05/16 07:21:51;;;;;;;2.88;1.13;;;11.00;99.90;;;;;;5059997;28;20112;-63
2023/05/16 07:24:16;;;;;;;9.93;1.38;;;11.10;99.90;;;;;;5067340;28;20040;-64
2023/05/16 07:26:42;;;;;;;7.57;1.38;;;11.10;99.90;;;;;;5062381;28;20407;-64
2023/05/16 07:29:08;;;;;;;6.93;1.55;;;11.20;99.90;;;;;;5060053;28;20037;-64
2023/05/16 07:31:33;;;;;;;7.05;1.50;;;11.20;99.90;;;;;;5054974;28;20126;-63
2023/05/16 07:33:59;;;;;;;8.20;1.40;;;11.10;99.90;;;;;;5059113;28;20097;-64
2023/05/16 07:36:25;;;;;;;6.00;1.83;;;11.10;99.90;;;;;;5054102;28;20446;-64
2023/05/16 07:38:50;;;;;;;4.60;1.20;;;11.10;99.90;;;;;;5062057;28;20037;-64
2023/05/16 07:41:16;;;;;;;7.32;1.30;;;11.20;99.90;;;;;;5062241;28;20035;-64
2023/05/16 07:43:42;;;;;;;8.65;1.73;;;11.10;99.90;;;;;;5067321;28;20078;-62
2023/05/16 07:46:07;;;;;;;7.25;1.30;;;11.20;99.90;;;;;;5060103;28;20041;-64
2023/05/16 07:48:33;;;;;;;9.40;1.40;;;11.20;99.90;;;;;;5058696;28;20036;-64
2023/05/16 07:50:58;;;;;;;5.18;1.30;;;11.30;99.90;;;;;;5072850;28;20036;-64
2023/05/16 07:53:24;;;;;;;8.70;1.80;;;11.30;99.90;;;;;;5063009;28;20036;-63
2023/05/16 07:55:50;;;;;;;10.65;1.58;;;11.20;99.90;;;;;;5068808;28;20078;-64
2023/05/16 07:58:15;;;;;;;13.80;3.22;;;11.20;99.90;;;;;;5066679;28;20502;-64
2023/05/16 08:00:41;;;;;;;5.72;1.60;;;11.20;99.90;;;;;;5061158;28;20398;-64
2023/05/16 08:03:07;;;;;;;10.50;1.70;;;11.10;99.90;;;;;;5067150;28;20044;-64
2023/05/16 08:05:32;;;;;;;8.05;1.67;;;11.10;99.90;;;;;;5063990;28;20134;-63
2023/05/16 08:07:58;;;;;;;6.13;1.55;;;11.10;99.90;;;;;;5067792;28;20040;-64
2023/05/16 08:10:23;;;;;;;9.95;1.30;;;11.10;99.90;;;;;;5064400;28;20040;-64
2023/05/16 08:12:49;;;;;;;6.65;1.45;;;11.30;99.90;;;;;;5062002;28;20407;-63
2023/05/16 08:15:15;;;;;;;8.48;1.60;;;11.30;99.90;;;;;;5066132;28;20402;-63
2023/05/16 08:17:41;;;;;;;9.15;1.90;;;11.40;99.90;;;;;;5066610;28;20045;-62
2023/05/16 08:20:07;;;;;;;9.40;1.70;;;11.50;99.90;;;;;;5071283;28;20040;-64
2023/05/16 08:22:33;;;;;;;7.78;1.48;;;11.70;99.90;;;;;;5061868;28;20044;-64
2023/05/16 08:24:59;;;;;;;8.82;2.28;;;11.90;99.90;;;;;;5061876;28;20309;-64
2023/05/16 08:27:26;;;;;;;12.73;2.58;;;12.10;99.90;;;;;;5062151;28;20041;-63
2023/05/16 08:29:52;;;;;;;6.30;1.63;;;12.40;99.90;;;;;;5070040;28;20036;-64
2023/05/16 08:32:17;;;;;;;6.63;1.92;;;12.70;99.90;;;;;;5070780;28;20036;-63
2023/05/16 08:34:43;;;;;;;7.93;1.83;;;13.10;99.90;;;;;;5062665;28;20041;-63
2023/05/16 08:37:09;;;;;;;5.82;1.40;;;13.40;99.90;;;;;;5055223;28;20045;-64
2023/05/16 08:39:37;;;;;;;6.43;1.45;;;13.50;99.90;;;;;;5068238;28;20040;-65
2023/05/16 08:42:04;;;;;;;6.10;1.50;;;13.50;99.90;;;;;;5059858;28;20327;-64
2023/05/16 08:44:29;;;;;;;6.63;1.60;;;13.50;99.90;;;;;;5058705;22;20053;-78
2023/05/16 08:46:56;;;;;;;6.63;1.40;;;13.60;99.90;;;;;;5033799;28;20040;-75
2023/05/16 08:49:25;;;;;;;7.20;2.00;;;13.80;99.90;;;;;;5034734;28;20040;-76
2023/05/16 08:51:55;;;;;;;6.68;1.70;;;14.10;99.90;;;;;;5034077;28;20044;-76
2023/05/16 08:54:21;;;;;;;9.52;1.73;;;14.30;99.90;;;;;;5034325;28;20408;-75
2023/05/16 08:56:49;;;;;;;8.40;1.77;;;14.30;99.90;;;;;;5033365;28;20045;-76
2023/05/16 08:59:15;;;;;;;6.53;1.55;;;14.00;99.90;;;;;;5034278;28;20567;-76
2023/05/16 09:01:41;;;;;;;7.90;1.70;;;13.80;99.90;;;;;;5034332;28;20108;-76
2023/05/16 09:04:08;;;;;;;6.95;1.75;;;13.50;99.90;;;;;;5029874;28;20041;-76
2023/05/16 09:06:35;;;;;;;5.53;1.27;;;13.50;99.90;;;;;;5025711;28;20223;-75
2023/05/16 09:09:01;;;;;;;5.25;1.20;;;13.30;99.90;;;;;;5033331;28;20041;-76
2023/05/16 09:11:27;;;;;;;4.63;1.40;;;13.30;99.90;;;;;;5029672;28;20059;-76
2023/05/16 09:13:53;;;;;;;6.85;1.40;;;13.50;99.90;;;;;;5033942;28;20501;-76
2023/05/16 09:16:19;;;;;;;6.20;1.40;;;13.80;99.90;;;;;;5029471;28;20044;-76
2023/05/16 09:18:55;;;;;;;6.80;1.60;;;14.20;99.90;;;;;;5017864;28;20041;-76
2023/05/16 09:21:21;;;;;;;5.68;1.55;;;14.60;99.90;;;;;;5033798;28;20095;-76
2023/05/16 09:23:51;;;;;;;9.25;1.40;;;15.10;99.90;;;;;;5033714;28;20051;-76
2023/05/16 09:26:17;;;;;;;7.82;1.77;;;15.30;99.90;;;;;;5016716;28;20481;-76
2023/05/16 09:28:43;;;;;;;7.32;1.48;;;15.70;99.90;;;;;;5025851;28;20099;-75
2023/05/16 09:31:35;;;;;;;7.25;1.30;;;15.40;99.90;;;;;;5033267;28;20032;-76
2023/05/16 09:34:01;;;;;;;4.65;1.38;;;15.50;99.90;;;;;;5033593;28;20132;-76
2023/05/16 09:36:26;;;;;;;5.60;1.42;;;15.70;99.90;;;;;;5016825;28;20127;-76
2023/05/16 09:38:52;;;;;;;7.28;1.63;;;15.90;99.90;;;;;;5033613;28;20389;-76
2023/05/16 09:41:20;;;;;;;5.53;1.60;;;16.00;99.90;;;;;;5033467;28;20082;-76
2023/05/16 09:43:45;;;;;;;6.57;1.30;;;15.90;99.90;;;;;;5033510;28;20067;-76
2023/05/16 09:46:13;;;;;;;6.22;1.55;;;15.90;99.60;;;;;;5033383;28;20040;-76
2023/05/16 09:48:48;;;;;;;5.13;1.55;;;15.70;99.00;;;;;;5033378;28;20041;-76
2023/05/16 09:51:14;;;;;;;5.30;1.35;;;15.60;99.20;;;;;;5033513;28;20051;-76
2023/05/16 09:53:43;;;;;;;4.10;1.40;;;15.50;99.20;;;;;;5050751;28;20410;-76
2023/05/16 09:56:13;;;;;;;7.82;1.67;;;15.40;99.00;;;;;;5033046;28;20041;-76
2023/05/16 09:58:41;;;;;;;8.88;1.58;;;15.10;99.30;;;;;;5033330;28;20041;-76
2023/05/16 10:01:07;;;;;;;7.72;1.60;;;14.80;99.30;;;;;;5028534;28;20035;-76
2023/05/16 10:03:35;;;;;;;7.45;1.33;;;14.60;99.90;;;;;;5032888;28;20037;-76
2023/05/16 10:06:01;;;;;;;8.90;1.67;;;14.70;99.90;;;;;;5023613;28;20040;-76
2023/05/16 10:08:28;;;;;;;7.82;1.70;;;15.00;99.90;;;;;;5032726;28;20500;-76
2023/05/16 10:10:55;;;;;;;5.20;1.40;;;15.40;99.90;;;;;;5027755;28;20060;-76
2023/05/16 10:13:23;;;;;;;4.50;1.50;;;15.50;99.90;;;;;;5033275;28;20053;-76
2023/05/16 10:15:50;;;;;;;8.18;1.67;;;15.40;99.90;;;;;;5032174;28;20045;-76
2023/05/16 10:18:18;;;;;;;5.85;1.73;;;15.30;99.90;;;;;;5027017;28;20138;-75
2023/05/16 10:20:49;;;;;;;5.97;1.40;;;15.10;99.90;;;;;;5029658;28;20076;-75
2023/05/16 10:23:19;;;;;;;6.53;1.88;;;15.20;99.90;;;;;;5016036;28;20072;-76
2023/05/16 10:25:47;;;;;;;6.00;1.90;;;15.30;99.90;;;;;;5032574;28;20045;-76
2023/05/16 10:28:15;;;;;;;5.32;1.55;;;15.70;99.90;;;;;;5032776;28;20090;-76
2023/05/16 10:30:43;;;;;;;7.03;1.50;;;16.10;99.90;;;;;;5033053;28;20037;-76
2023/05/16 10:33:17;;;;;;;7.57;1.67;;;16.40;99.90;;;;;;5032806;28;20080;-76
2023/05/16 10:35:43;;;;;;;9.23;1.42;;;16.70;98.70;;;;;;5032617;28;20073;-76
2023/05/16 10:38:11;;;;;;;3.60;1.20;;;16.80;98.00;;;;;;5032662;28;20115;-76
2023/05/16 10:40:39;;;;;;;6.47;1.35;;;16.60;97.10;;;;;;5033247;28;20045;-76
2023/05/16 10:43:07;;;;;;;7.80;1.60;;;16.30;97.00;;;;;;5024012;28;20041;-76
2023/05/16 10:45:32;;;;;;;4.05;1.23;;;16.10;97.20;;;;;;5032917;28;20067;-77
2023/05/16 10:48:04;;;;;;;8.48;1.35;;;15.80;97.30;;;;;;5033061;28;20120;-76
2023/05/16 10:50:38;;;;;;;6.00;1.63;;;15.70;98.00;;;;;;5029040;28;20040;-76
2023/05/16 10:53:20;;;;;;;5.85;1.65;;;15.80;97.70;;;;;;5033026;28;20041;-76
2023/05/16 10:55:57;;;;;;;7.57;2.03;;;16.00;98.30;;;;;;5030242;28;20041;-76
2023/05/16 10:58:25;;;;;;;8.55;1.75;;;16.40;98.00;;;;;;5032634;28;20284;-76
2023/05/16 11:01:17;;;;;;;5.72;1.83;;;16.70;98.10;;;;;;5024350;28;20048;-76
2023/05/16 11:03:58;;;;;;;4.43;1.67;;;17.10;97.20;;;;;;5032031;28;20052;-77
2023/05/16 11:06:46;;;;;;;8.20;2.13;;;17.20;96.80;;;;;;5027101;28;20557;-76
2023/05/16 11:09:14;;;;;;;3.90;1.40;;;17.10;96.90;;;;;;5021603;28;20090;-76
2023/05/16 11:12:02;;;;;;;5.13;1.50;;;16.70;95.50;;;;;;5029864;28;20536;-76
2023/05/16 11:14:31;;;;;;;8.27;1.73;;;16.30;94.70;;;;;;5062758;28;20091;-76
2023/05/16 11:17:10;;;;;;;5.93;1.58;;;16.00;95.90;;;;;;5032346;28;20047;-76
2023/05/16 11:19:41;;;;;;;5.78;1.67;;;16.10;96.60;;;;;;5033554;28;20488;-77
2023/05/16 11:22:22;;;;;;;5.47;1.63;;;16.20;96.80;;;;;;5036397;28;20440;-76
2023/05/16 11:25:00;;;;;;;4.63;1.63;;;16.40;97.00;;;;;;5035564;28;20076;-76
2023/05/16 11:27:42;;;;;;;6.07;1.52;;;16.70;97.00;;;;;;5031158;28;20087;-75
2023/05/16 11:30:20;;;;;;;5.20;1.63;;;17.00;97.20;;;;;;5029357;28;20677;-76
2023/05/16 11:32:47;;;;;;;4.72;1.70;;;17.30;96.70;;;;;;5035685;28;20033;-77
2023/05/16 11:35:17;;;;;;;7.88;1.77;;;17.50;96.50;;;;;;5035790;28;20052;-76
2023/05/16 11:37:44;;;;;;;6.22;1.60;;;17.70;96.00;;;;;;5053612;28;20040;-76
2023/05/16 11:40:12;;;;;;;6.28;2.00;;;18.10;96.00;;;;;;5035900;28;20037;-76
2023/05/16 11:42:42;;;;;;;7.05;1.92;;;18.20;95.10;;;;;;5035669;28;20044;-76
2023/05/16 11:45:11;;;;;;;3.92;1.55;;;18.20;93.90;;;;;;5035545;28;20080;-76
2023/05/16 11:47:40;;;;;;;6.45;1.70;;;17.90;93.70;;;;;;5035645;28;20037;-76
2023/05/16 11:50:09;;;;;;;4.50;1.60;;;17.60;93.40;;;;;;5031426;28;20698;-76
2023/05/16 11:52:36;;;;;;;10.30;2.13;;;17.30;93.40;;;;;;5035379;28;20091;-77
2023/05/16 11:55:03;;;;;;;5.90;1.75;;;16.90;93.80;;;;;;5035269;28;20033;-76
2023/05/16 11:57:30;;;;;;;7.18;1.88;;;16.90;94.50;;;;;;5035750;28;20041;-76
2023/05/16 12:00:15;;;;;;;6.03;1.75;;;16.90;94.70;;;;;;5035483;28;20049;-76
2023/05/16 12:02:40;;;;;;;10.15;1.83;;;16.70;94.80;;;;;;5050346;28;20044;-76
2023/05/16 12:05:09;;;;;;;9.57;1.88;;;16.70;95.50;;;;;;5035152;28;20201;-76
2023/05/16 12:07:36;;;;;;;8.02;1.70;;;16.70;96.50;;;;;;5019457;28;20519;-78
2023/05/16 12:10:09;;;;;;;8.13;2.17;;;16.80;96.70;;;;;;5030061;28;20041;-76
2023/05/16 12:12:37;;;;;;;5.80;1.83;;;16.60;96.90;;;;;;5022252;28;20091;-77
2023/05/16 12:15:05;;;;;;;9.90;2.60;;;16.60;96.90;;;;;;5035135;28;20037;-76
2023/05/16 12:17:31;;;;;;;6.45;1.73;;;16.50;96.80;;;;;;5031390;28;20048;-76
2023/05/16 12:19:57;;;;;;;4.70;1.70;;;16.60;96.30;;;;;;5034603;28;20385;-77
2023/05/16 12:22:24;;;;;;;7.25;1.42;;;16.10;96.00;;;;;;5018116;28;20048;-76
2023/05/16 12:24:50;;;;;;;9.95;1.80;;;15.90;96.40;;;;;;5035007;28;20425;-76
2023/05/16 12:27:24;;;;;;;5.65;1.60;;;15.80;96.90;;;;;;5039797;28;20127;-76
2023/05/16 12:29:49;;;;;;;6.00;1.60;;;15.70;97.30;;;;;;5034969;28;20404;-76
2023/05/16 12:32:19;;;;;;;5.25;1.60;;;15.60;97.70;;;;;;5029538;28;20038;-76
2023/05/16 12:34:52;;;;;;;5.75;1.90;;;15.60;98.20;;;;;;5033001;28;20472;-76
2023/05/16 12:37:18;;;;;;;6.60;1.85;;;15.70;98.50;;;;;;5035019;28;20043;-76
2023/05/16 12:39:47;;;;;;;4.97;1.80;;;15.60;98.70;;;;;;5028725;28;20045;-76
2023/05/16 12:42:13;;;;;;;6.35;1.88;;;15.80;98.70;;;;;;5034701;28;20045;-75
2023/05/16 12:44:39;;;;;;;4.85;1.73;;;16.10;98.80;;;;;;5034547;28;20055;-76
2023/05/16 12:47:11;;;;;;;6.50;2.10;;;16.20;98.60;;;;;;5030619;28;20045;-76